Time;durP1;ratioP1;P1;durP2;ratioP2;P2;SDS_P1;SDS_P2;PMS_P1;PMS_P2;Temp;Humidity;BMP_temperature;BMP_pressure;BME280_temperature;BME280_humidity;BME280_pressure;Samples;Min_cycle;Max_cycle;Signal;HPM_P1;HPM_P2
2024/01/09 00:01:27;;;;;;;3.67;2.42;;;;;;;-2.96;100.00;103886.25;5049036;28;20056;-77
2024/01/09 00:03:57;;;;;;;3.83;2.33;;;;;;;-2.98;100.00;103882.59;5021864;28;20046;-76
2024/01/09 00:06:24;;;;;;;3.08;2.40;;;;;;;-2.99;100.00;103873.91;5017000;28;20495;-78
2024/01/09 00:08:52;;;;;;;6.68;2.40;;;;;;;-2.99;100.00;103873.00;5007888;28;20037;-77
2024/01/09 00:11:19;;;;;;;5.55;2.70;;;;;;;-3.01;100.00;103871.91;5041872;28;20529;-78
2024/01/09 00:13:47;;;;;;;3.97;2.30;;;;;;;-3.04;100.00;103869.94;5029187;28;20041;-78
2024/01/09 00:16:14;;;;;;;3.85;2.58;;;;;;;-3.06;100.00;103876.59;5044949;28;20049;-79
2024/01/09 00:18:42;;;;;;;3.15;2.08;;;;;;;-3.08;100.00;103866.84;5016866;28;20739;-78
2024/01/09 00:21:09;;;;;;;2.90;2.13;;;;;;;-3.08;100.00;103872.00;5012953;28;20067;-78
2024/01/09 00:23:37;;;;;;;2.67;2.13;;;;;;;-3.10;100.00;103874.47;4983214;28;20663;-78
2024/01/09 00:26:04;;;;;;;4.30;2.88;;;;;;;-3.13;100.00;103859.53;5025733;28;20049;-78
2024/01/09 00:28:32;;;;;;;3.00;1.92;;;;;;;-3.15;100.00;103863.63;5023485;28;20153;-78
2024/01/09 00:30:59;;;;;;;3.00;2.15;;;;;;;-3.16;100.00;103861.81;5028120;28;20426;-78
2024/01/09 00:33:26;;;;;;;3.70;2.38;;;;;;;-3.17;100.00;103867.72;5020706;28;20086;-78
2024/01/09 00:35:54;;;;;;;3.65;2.35;;;;;;;-3.16;100.00;103861.81;5027825;28;20061;-78
2024/01/09 00:38:21;;;;;;;3.17;2.25;;;;;;;-3.17;100.00;103871.97;4988589;28;20041;-78
2024/01/09 00:40:49;;;;;;;5.63;2.55;;;;;;;-3.18;100.00;103872.69;5032664;28;20050;-78
2024/01/09 00:43:16;;;;;;;4.15;2.30;;;;;;;-3.22;100.00;103868.88;5028161;28;20530;-78
2024/01/09 00:45:44;;;;;;;4.95;2.17;;;;;;;-3.23;100.00;103867.06;5025306;28;20044;-78
2024/01/09 00:48:11;;;;;;;3.08;2.30;;;;;;;-3.25;100.00;103873.72;5027739;28;20387;-78
2024/01/09 00:50:39;;;;;;;2.78;2.05;;;;;;;-3.26;100.00;103866.72;5018259;28;20064;-78
2024/01/09 00:53:07;;;;;;;3.00;2.70;;;;;;;-3.27;100.00;103861.38;5023511;28;20053;-78
2024/01/09 00:55:35;;;;;;;3.83;2.15;;;;;;;-3.28;100.00;103855.31;4987729;28;20046;-78
2024/01/09 00:58:02;;;;;;;5.28;2.80;;;;;;;-3.30;100.00;103874.88;5019040;28;20038;-78
2024/01/09 01:00:29;;;;;;;3.45;2.20;;;;;;;-3.30;100.00;103868.81;5017319;28;20065;-78
2024/01/09 01:02:57;;;;;;;3.40;2.25;;;;;;;-3.30;100.00;103867.13;5025885;28;20049;-78
2024/01/09 01:05:24;;;;;;;2.35;2.15;;;;;;;-3.31;100.00;103857.56;5009224;28;20057;-78
2024/01/09 01:07:52;;;;;;;6.38;2.42;;;;;;;-3.32;100.00;103868.66;5037819;28;20385;-77
2024/01/09 01:10:19;;;;;;;4.97;2.53;;;;;;;-3.35;100.00;103861.47;4982103;28;20053;-77
2024/01/09 01:12:47;;;;;;;6.05;2.15;;;;;;;-3.35;100.00;103866.63;5021170;28;20048;-77
2024/01/09 01:15:15;;;;;;;4.05;2.38;;;;;;;-3.37;100.00;103860.38;5022175;28;20065;-77
2024/01/09 01:17:43;;;;;;;5.25;2.60;;;;;;;-3.38;100.00;103870.56;5019769;28;20439;-78
2024/01/09 01:20:11;;;;;;;4.88;2.63;;;;;;;-3.40;100.00;103869.50;5014716;28;20053;-78
2024/01/09 01:22:38;;;;;;;2.83;2.47;;;;;;;-3.42;100.00;103870.97;5010702;28;20045;-78
2024/01/09 01:25:07;;;;;;;3.33;2.25;;;;;;;-3.45;100.00;103878.38;4984430;28;20069;-77
2024/01/09 01:27:35;;;;;;;3.58;2.47;;;;;;;-3.46;100.00;103872.31;5001494;28;20054;-78
2024/01/09 01:30:03;;;;;;;3.28;2.50;;;;;;;-3.50;100.00;103870.13;5028201;28;20049;-78
2024/01/09 01:32:30;;;;;;;4.97;2.47;;;;;;;-3.54;100.00;103874.03;5050360;28;20049;-77
2024/01/09 01:34:58;;;;;;;3.33;2.78;;;;;;;-3.55;100.00;103869.66;5000319;28;20052;-77
2024/01/09 01:37:28;;;;;;;3.72;2.63;;;;;;;-3.57;100.00;103877.97;5008329;28;20467;-78
2024/01/09 01:39:56;;;;;;;3.72;2.30;;;;;;;-3.58;100.00;103871.88;4995521;28;20053;-78
2024/01/09 01:42:23;;;;;;;3.70;2.15;;;;;;;-3.62;100.00;103869.72;4974793;28;20045;-78
2024/01/09 01:44:51;;;;;;;3.67;2.67;;;;;;;-3.63;100.00;103869.53;5017611;28;20048;-78
2024/01/09 01:47:18;;;;;;;3.60;2.63;;;;;;;-3.66;100.00;103870.13;5021612;28;20042;-78
2024/01/09 01:49:46;;;;;;;4.68;2.78;;;;;;;-3.67;100.00;103870.88;5020547;28;20100;-78
2024/01/09 01:52:16;;;;;;;3.75;2.60;;;;;;;-3.68;100.00;103865.56;5010243;28;20050;-78
2024/01/09 01:54:44;;;;;;;2.75;2.33;;;;;;;-3.70;100.00;103864.47;5019371;28;20925;-77
2024/01/09 01:57:12;;;;;;;3.63;2.58;;;;;;;-3.73;100.00;103871.09;4981335;28;20495;-78
2024/01/09 01:59:45;;;;;;;4.75;2.60;;;;;;;-3.74;100.00;103871.88;5017210;28;20045;-78
2024/01/09 02:02:14;;;;;;;3.13;2.17;;;;;;;-3.76;100.00;103867.31;5004541;28;20061;-77
2024/01/09 02:04:43;;;;;;;4.72;2.38;;;;;;;-3.79;100.00;103870.44;5036318;28;20046;-78
2024/01/09 02:07:10;;;;;;;4.78;2.60;;;;;;;-3.80;100.00;103863.47;5013334;28;20514;-78
2024/01/09 02:09:38;;;;;;;3.67;2.53;;;;;;;-3.81;100.00;103866.78;5019349;28;20042;-77
2024/01/09 02:12:06;;;;;;;3.83;2.50;;;;;;;-3.83;100.00;103873.44;4982018;28;20073;-78
2024/01/09 02:14:34;;;;;;;3.13;2.17;;;;;;;-3.84;100.00;103875.84;5047791;28;20050;-78
2024/01/09 02:17:02;;;;;;;5.60;2.80;;;;;;;-3.86;100.00;103867.03;5021801;28;20054;-78
2024/01/09 02:19:30;;;;;;;2.60;2.40;;;;;;;-3.89;100.00;103861.53;5014960;28;20064;-78
2024/01/09 02:21:58;;;;;;;4.00;2.10;;;;;;;-3.90;100.00;103878.66;5007401;28;20060;-78
2024/01/09 02:24:25;;;;;;;7.13;3.30;;;;;;;-3.93;100.00;103857.72;5013834;28;20048;-78
2024/01/09 02:27:20;;;;;;;4.10;2.10;;;;;;;-3.94;100.00;103856.78;4987022;28;20406;-77
2024/01/09 02:29:49;;;;;;;3.85;2.42;;;;;;;-3.97;100.00;103856.47;5018753;28;20481;-77
2024/01/09 02:32:19;;;;;;;4.10;2.40;;;;;;;-3.99;100.00;103854.44;5014054;28;20061;-78
2024/01/09 02:34:48;;;;;;;2.87;2.40;;;;;;;-4.00;100.00;103853.53;5004333;28;20054;-78
2024/01/09 02:37:15;;;;;;;5.18;2.10;;;;;;;-4.01;100.00;103850.78;5017518;28;20571;-78
2024/01/09 02:39:42;;;;;;;4.70;2.90;;;;;;;-4.02;100.00;103848.97;5035860;28;20045;-78
2024/01/09 02:42:10;;;;;;;3.35;2.35;;;;;;;-4.03;100.00;103852.28;5012265;28;20527;-78
2024/01/09 02:44:37;;;;;;;4.80;2.75;;;;;;;-4.02;100.00;103856.72;4999503;28;20049;-77
2024/01/09 02:47:04;;;;;;;4.10;2.92;;;;;;;-4.06;100.00;103855.47;5008200;28;20056;-78
2024/01/09 02:49:32;;;;;;;2.83;2.15;;;;;;;-4.06;100.00;103852.88;5055152;28;20427;-78
2024/01/09 02:51:59;;;;;;;2.83;2.47;;;;;;;-4.08;100.00;103851.78;5057127;28;20529;-77
2024/01/09 02:54:27;;;;;;;3.17;2.60;;;;;;;-4.08;100.00;103851.78;5010861;28;20061;-78
2024/01/09 02:56:54;;;;;;;3.92;2.80;;;;;;;-4.09;100.00;103860.25;5023472;28;20060;-77
2024/01/09 02:59:23;;;;;;;5.20;2.92;;;;;;;-4.10;100.00;103858.44;4976257;28;20038;-77
2024/01/09 03:01:51;;;;;;;7.35;3.40;;;;;;;-4.12;100.00;103852.19;5015292;28;20373;-77
2024/01/09 03:04:19;;;;;;;6.68;2.83;;;;;;;-4.14;100.00;103858.81;5056206;28;20461;-77
2024/01/09 03:06:47;;;;;;;3.88;2.78;;;;;;;-4.16;100.00;103853.53;5026001;28;20041;-78
2024/01/09 03:09:16;;;;;;;4.10;2.55;;;;;;;-4.18;100.00;103861.81;5010428;28;20049;-77
2024/01/09 03:11:43;;;;;;;3.00;2.47;;;;;;;-4.19;100.00;103845.44;5016769;28;20648;-78
2024/01/09 03:14:12;;;;;;;3.10;2.70;;;;;;;-4.21;100.00;103859.81;4994175;28;20041;-79
2024/01/09 03:16:40;;;;;;;6.18;2.97;;;;;;;-4.23;100.00;103863.88;5025388;28;20081;-78
2024/01/09 03:19:07;;;;;;;8.88;2.78;;;;;;;-4.22;100.00;103864.78;5014321;28;20052;-78
2024/01/09 03:21:35;;;;;;;4.05;2.47;;;;;;;-4.26;100.00;103868.69;5025129;28;20676;-78
2024/01/09 03:24:02;;;;;;;4.85;3.10;;;;;;;-4.26;100.00;103865.19;5028619;28;20056;-78
2024/01/09 03:26:30;;;;;;;3.45;2.53;;;;;;;-4.28;100.00;103866.69;5017634;28;20057;-78
2024/01/09 03:28:58;;;;;;;3.47;2.65;;;;;;;-4.29;100.00;103875.13;5038698;28;20069;-78
2024/01/09 03:31:25;;;;;;;3.33;2.65;;;;;;;-4.31;100.00;103869.81;4974164;28;20049;-77
2024/01/09 03:33:53;;;;;;;6.70;3.22;;;;;;;-4.34;100.00;103864.34;5026032;28;20046;-77
2024/01/09 03:36:20;;;;;;;3.97;3.22;;;;;;;-4.35;100.00;103868.59;5021438;28;20061;-78
2024/01/09 03:38:48;;;;;;;4.97;2.80;;;;;;;-4.36;100.00;103861.59;5025587;28;20045;-78
2024/01/09 03:41:15;;;;;;;4.05;3.30;;;;;;;-4.39;100.00;103861.25;5015279;28;20037;-78
2024/01/09 03:43:43;;;;;;;4.43;2.88;;;;;;;-4.41;100.00;103857.56;5011111;28;20415;-78
2024/01/09 03:46:10;;;;;;;3.63;3.10;;;;;;;-4.42;100.00;103860.91;4973473;28;20060;-78
2024/01/09 03:48:37;;;;;;;5.80;3.15;;;;;;;-4.44;100.00;103867.56;5027053;28;20671;-78
2024/01/09 03:51:05;;;;;;;4.80;2.70;;;;;;;-4.45;100.00;103862.22;5025946;28;20053;-78
2024/01/09 03:53:32;;;;;;;5.07;2.72;;;;;;;-4.46;100.00;103863.91;5024474;28;20481;-77
2024/01/09 03:56:00;;;;;;;4.75;3.25;;;;;;;-4.47;100.00;103856.91;5027260;28;20057;-76
2024/01/09 03:58:27;;;;;;;4.32;3.00;;;;;;;-4.48;100.00;103865.34;5016788;28;20041;-78
2024/01/09 04:00:54;;;;;;;6.20;3.10;;;;;;;-4.52;100.00;103858.97;4989554;28;20049;-78
2024/01/09 04:03:22;;;;;;;4.03;3.35;;;;;;;-4.53;100.00;103866.50;5006400;28;20054;-78
2024/01/09 04:05:50;;;;;;;3.92;3.15;;;;;;;-4.55;100.00;103868.00;5028931;28;20068;-78
2024/01/09 04:08:17;;;;;;;4.30;2.97;;;;;;;-4.57;100.00;103857.53;5026529;28;20045;-78
2024/01/09 04:10:45;;;;;;;4.30;3.47;;;;;;;-4.58;100.00;103862.50;5028139;28;20402;-78
2024/01/09 04:13:12;;;;;;;6.72;3.80;;;;;;;-4.60;100.00;103859.75;5014614;28;20037;-78
2024/01/09 04:15:40;;;;;;;5.82;3.20;;;;;;;-4.62;100.00;103861.22;4989387;28;22244;-78
2024/01/09 04:18:07;;;;;;;6.13;2.78;;;;;;;-4.64;100.00;103867.88;5029645;28;20068;-77
2024/01/09 04:20:35;;;;;;;5.35;3.53;;;;;;;-4.65;100.00;103860.91;5026983;28;20041;-77
2024/01/09 04:23:02;;;;;;;5.03;3.50;;;;;;;-4.66;100.00;103869.34;5027484;28;20041;-78
2024/01/09 04:25:29;;;;;;;4.80;3.22;;;;;;;-4.65;100.00;103872.84;5021406;28;20049;-77
2024/01/09 04:27:57;;;;;;;5.57;3.90;;;;;;;-4.67;100.00;103862.38;5016700;28;20045;-77
2024/01/09 04:30:26;;;;;;;8.65;4.32;;;;;;;-4.67;100.00;103857.22;5023203;28;20065;-78
2024/01/09 04:32:53;;;;;;;8.68;3.75;;;;;;;-4.69;100.00;103856.13;4986711;28;20493;-78
2024/01/09 04:35:21;;;;;;;4.15;3.50;;;;;;;-4.71;100.00;103860.19;5025426;28;20045;-78
2024/01/09 04:37:48;;;;;;;4.45;3.50;;;;;;;-4.73;100.00;103860.00;5027466;28;20048;-78
2024/01/09 04:40:16;;;;;;;5.65;4.47;;;;;;;-4.74;100.00;103859.88;5028154;28;20050;-78
2024/01/09 04:42:43;;;;;;;5.03;3.13;;;;;;;-4.78;100.00;103856.03;4999908;28;20050;-78
2024/01/09 04:45:10;;;;;;;4.65;3.60;;;;;;;-4.78;100.00;103865.38;5014810;28;20056;-78
2024/01/09 04:47:38;;;;;;;4.22;3.25;;;;;;;-4.79;100.00;103867.03;4990527;28;20565;-77
2024/01/09 04:50:06;;;;;;;5.70;3.33;;;;;;;-4.78;100.00;103865.38;5012558;28;20054;-79
2024/01/09 04:52:36;;;;;;;5.30;3.90;;;;;;;-4.80;100.00;103865.22;5027669;28;20041;-78
2024/01/09 04:55:04;;;;;;;4.97;3.83;;;;;;;-4.82;100.00;103877.00;5028730;28;20124;-78
2024/01/09 04:57:31;;;;;;;5.53;4.00;;;;;;;-4.81;100.00;103877.91;5023070;28;20049;-77
2024/01/09 04:59:58;;;;;;;5.50;3.53;;;;;;;-4.82;100.00;103877.00;5017015;28;20072;-77
2024/01/09 05:02:26;;;;;;;7.32;3.17;;;;;;;-4.84;100.00;103875.88;4955579;28;20057;-78
2024/01/09 05:04:53;;;;;;;4.45;3.35;;;;;;;-4.86;100.00;103879.03;5032962;28;20046;-77
2024/01/09 05:07:21;;;;;;;5.82;4.30;;;;;;;-4.87;100.00;103875.56;5030871;28;20056;-78
2024/01/09 05:09:49;;;;;;;4.55;3.92;;;;;;;-4.88;100.00;103883.09;5024773;28;20419;-77
2024/01/09 05:12:16;;;;;;;5.53;3.72;;;;;;;-4.91;100.00;103871.72;5011946;28;20107;-77
2024/01/09 05:14:43;;;;;;;5.72;4.05;;;;;;;-4.92;100.00;103875.00;5021248;28;20053;-77
2024/01/09 05:17:11;;;;;;;7.30;3.85;;;;;;;-4.95;100.00;103878.91;4962584;28;20050;-79
2024/01/09 05:19:38;;;;;;;5.93;3.80;;;;;;;-4.95;100.00;103877.25;5040942;28;20049;-78
2024/01/09 05:22:06;;;;;;;6.22;3.50;;;;;;;-4.96;100.00;103875.41;5020576;28;20054;-77
2024/01/09 05:24:33;;;;;;;6.15;3.90;;;;;;;-4.97;100.00;103881.31;5019107;28;20072;-78
2024/01/09 05:27:00;;;;;;;8.43;4.15;;;;;;;-4.98;100.00;103874.31;5039835;28;20050;-78
2024/01/09 05:29:28;;;;;;;4.72;3.53;;;;;;;-5.00;100.00;103874.91;5007432;28;20045;-78
2024/01/09 05:31:55;;;;;;;9.40;4.03;;;;;;;-5.02;100.00;103872.13;5013351;28;20050;-78
2024/01/09 05:34:22;;;;;;;5.50;3.47;;;;;;;-5.05;100.00;103871.78;4981478;28;20062;-77
2024/01/09 05:36:50;;;;;;;5.63;3.55;;;;;;;-5.05;100.00;103878.59;5013122;28;20495;-77
2024/01/09 05:39:18;;;;;;;5.70;3.92;;;;;;;-5.08;100.00;103881.72;5009876;28;20046;-77
2024/01/09 05:41:46;;;;;;;5.05;3.60;;;;;;;-5.11;100.00;103874.56;5009480;28;20487;-78
2024/01/09 05:44:13;;;;;;;7.03;4.25;;;;;;;-5.12;100.00;103875.31;5046810;28;20053;-77
2024/01/09 05:46:41;;;;;;;6.72;3.85;;;;;;;-5.12;100.00;103880.47;5007781;28;20076;-79
2024/01/09 05:49:08;;;;;;;5.53;4.20;;;;;;;-5.13;100.00;103878.63;4978860;28;20053;-78
2024/01/09 05:51:36;;;;;;;5.70;3.80;;;;;;;-5.14;100.00;103884.50;5027026;28;20049;-78
2024/01/09 05:54:03;;;;;;;5.85;4.10;;;;;;;-5.13;100.00;103893.13;5045791;28;20497;-78
2024/01/09 05:56:30;;;;;;;6.00;3.83;;;;;;;-5.17;100.00;103884.16;5023224;28;20045;-78
2024/01/09 05:58:58;;;;;;;4.40;3.72;;;;;;;-5.17;100.00;103891.84;5010330;28;20045;-78
2024/01/09 06:01:25;;;;;;;4.22;3.40;;;;;;;-5.19;100.00;103892.44;5006676;28;20052;-78
2024/01/09 06:03:53;;;;;;;4.43;3.45;;;;;;;-5.19;100.00;103898.47;4995740;28;20052;-78
2024/01/09 06:06:20;;;;;;;5.07;4.10;;;;;;;-5.19;100.00;103895.00;4983414;28;20068;-78
2024/01/09 06:08:48;;;;;;;5.88;3.45;;;;;;;-5.19;100.00;103884.72;5013493;28;20066;-78
2024/01/09 06:11:16;;;;;;;4.72;3.70;;;;;;;-5.20;100.00;103891.50;5001994;28;20431;-78
2024/01/09 06:13:44;;;;;;;7.20;4.07;;;;;;;-5.19;100.00;103893.34;5008835;28;20041;-78
2024/01/09 06:19:04;;;;;;;7.40;3.92;;;;;;;-5.20;100.00;103900.88;5015874;28;20061;-78
2024/01/09 06:21:32;;;;;;;7.68;3.60;;;;;;;-5.20;100.00;103895.72;4978172;28;20049;-79
2024/01/09 06:24:00;;;;;;;5.25;3.72;;;;;;;-5.20;100.00;103901.78;5008690;28;20053;-79
2024/01/09 06:26:27;;;;;;;8.43;4.03;;;;;;;-5.21;100.00;103904.19;5019722;28;20045;-78
2024/01/09 06:28:56;;;;;;;5.60;3.47;;;;;;;-5.22;100.00;103921.25;5017298;28;20064;-79
2024/01/09 06:31:23;;;;;;;5.95;4.00;;;;;;;-5.20;100.00;103911.16;5017895;28;20045;-79
2024/01/09 06:33:51;;;;;;;8.68;4.10;;;;;;;-5.21;100.00;103910.25;4994916;28;20068;-78
2024/01/09 06:36:19;;;;;;;7.28;3.47;;;;;;;-5.20;100.00;103911.16;5023975;28;20041;-78
2024/01/09 06:38:46;;;;;;;5.85;3.78;;;;;;;-5.22;100.00;103903.25;4991434;28;20049;-78
2024/01/09 06:41:14;;;;;;;5.10;3.72;;;;;;;-5.23;100.00;103900.53;5021628;28;20478;-78
2024/01/09 06:43:42;;;;;;;5.22;3.63;;;;;;;-5.23;100.00;103896.31;5013349;28;20433;-78
2024/01/09 06:46:09;;;;;;;5.20;4.05;;;;;;;-5.22;100.00;103904.91;5013697;28;20049;-78
2024/01/09 06:48:37;;;;;;;7.50;4.40;;;;;;;-5.23;100.00;103906.59;5024787;28;20046;-79
2024/01/09 06:51:05;;;;;;;5.75;3.63;;;;;;;-5.22;100.00;103895.53;5021614;28;20145;-78
2024/01/09 06:53:32;;;;;;;6.00;4.13;;;;;;;-5.21;100.00;103904.19;5004186;28;20042;-77
2024/01/09 06:56:00;;;;;;;7.03;3.47;;;;;;;-5.22;100.00;103900.69;5014284;28;20053;-78
2024/01/09 06:58:27;;;;;;;7.03;3.47;;;;;;;-5.20;100.00;103899.22;4988997;28;20045;-78
2024/01/09 07:00:54;;;;;;;5.70;3.78;;;;;;;-5.18;100.00;103897.75;5019294;28;20041;-77
2024/01/09 07:03:22;;;;;;;4.85;3.72;;;;;;;-5.16;100.00;103896.28;5022156;28;20053;-78
2024/01/09 07:05:49;;;;;;;5.47;3.78;;;;;;;-5.14;100.00;103899.94;5012800;28;20061;-78
2024/01/09 07:08:18;;;;;;;4.38;3.65;;;;;;;-5.10;100.00;103901.22;5017969;28;20045;-78
2024/01/09 07:10:45;;;;;;;3.20;2.90;;;;;;;-5.07;100.00;103903.22;4979353;28;20064;-77
2024/01/09 07:13:12;;;;;;;4.20;2.97;;;;;;;-5.04;100.00;103904.47;4973677;28;20454;-77
2024/01/09 07:15:40;;;;;;;3.63;3.33;;;;;;;-5.00;100.00;103916.94;5037461;28;20499;-77
2024/01/09 07:18:07;;;;;;;5.57;3.38;;;;;;;-4.95;100.00;103914.94;5015542;28;20077;-77
2024/01/09 07:20:35;;;;;;;5.30;2.85;;;;;;;-4.92;100.00;103910.13;4995366;28;20058;-77
2024/01/09 07:23:02;;;;;;;6.45;3.40;;;;;;;-4.87;100.00;103913.22;4998037;28;20065;-78
2024/01/09 07:25:43;;;;;;;;;;;;;;;-4.86;100.00;103913.38;5003820;28;20046;-78
2024/01/09 07:28:10;;;;;;;4.63;4.05;;;;;;;-4.87;100.00;103914.13;4997023;28;19921;-78
2024/01/09 07:30:37;;;;;;;3.50;3.15;;;;;;;-4.86;100.00;103922.75;5022189;28;20064;-78
2024/01/09 07:33:04;;;;;;;7.40;3.65;;;;;;;-4.88;100.00;103917.44;5010982;28;20426;-79
2024/01/09 07:35:37;;;;;;;5.43;3.78;;;;;;;-4.89;100.00;103920.78;5016937;28;20053;-77
2024/01/09 07:38:05;;;;;;;3.90;3.28;;;;;;;-4.93;100.00;103923.72;5012641;28;20072;-77
2024/01/09 07:40:32;;;;;;;5.18;3.30;;;;;;;-4.95;100.00;103927.78;4980772;28;20156;-77
2024/01/09 07:43:00;;;;;;;9.20;3.97;;;;;;;-4.97;100.00;103932.75;5004984;28;20056;-78
2024/01/09 07:45:30;;;;;;;5.40;3.80;;;;;;;-4.98;100.00;103936.03;5006359;28;20049;-77
2024/01/09 07:47:59;;;;;;;6.00;4.28;;;;;;;-4.98;100.00;103946.34;5020956;28;20056;-79
2024/01/09 07:50:27;;;;;;;8.32;4.38;;;;;;;-4.98;100.00;103935.13;5014202;28;20052;-79
2024/01/09 07:52:55;;;;;;;7.55;4.18;;;;;;;-4.98;100.00;103937.72;5019016;28;20396;-78
2024/01/09 07:55:22;;;;;;;5.90;4.07;;;;;;;-5.01;100.00;103929.63;5013747;28;20513;-78
2024/01/09 07:57:49;;;;;;;5.38;4.22;;;;;;;-5.01;100.00;103928.00;4973386;28;20061;-79
2024/01/09 08:00:17;;;;;;;6.70;4.55;;;;;;;-5.01;100.00;103932.19;5035686;28;20057;-78
2024/01/09 08:02:45;;;;;;;5.78;4.18;;;;;;;-5.00;100.00;103939.19;5014822;28;20049;-78
2024/01/09 08:05:12;;;;;;;7.40;4.60;;;;;;;-5.01;100.00;103946.00;5014108;28;20050;-78
2024/01/09 08:07:40;;;;;;;8.85;3.95;;;;;;;-5.01;100.00;103946.00;5019109;28;20052;-78
2024/01/09 08:10:07;;;;;;;8.23;4.43;;;;;;;-5.01;100.00;103934.78;5021481;28;20054;-78
2024/01/09 08:12:35;;;;;;;4.63;3.80;;;;;;;-5.00;100.00;103942.66;4993200;28;20053;-78
2024/01/09 08:15:03;;;;;;;6.63;3.75;;;;;;;-5.00;100.00;103939.19;5007162;28;20065;-78
2024/01/09 08:17:30;;;;;;;5.03;3.55;;;;;;;-5.00;100.00;103947.81;5023830;28;20048;-77
2024/01/09 08:19:58;;;;;;;7.03;4.65;;;;;;;-4.99;100.00;103951.28;5020793;28;20495;-78
2024/01/09 08:22:26;;;;;;;6.60;4.43;;;;;;;-4.98;100.00;103940.28;5007262;28;20042;-77
2024/01/09 08:24:53;;;;;;;5.45;4.38;;;;;;;-4.97;100.00;103944.66;5053948;28;20053;-78
2024/01/09 08:27:20;;;;;;;8.85;5.18;;;;;;;-4.96;100.00;103954.22;4967863;28;20148;-78
2024/01/09 08:29:48;;;;;;;9.38;5.20;;;;;;;-4.95;100.00;103949.28;5018433;28;20530;-79
2024/01/09 08:32:18;;;;;;;8.25;4.60;;;;;;;-4.93;100.00;103952.94;5041551;28;20046;-78
2024/01/09 08:34:45;;;;;;;6.00;4.40;;;;;;;-4.91;100.00;103956.59;5037524;28;20049;-79
2024/01/09 08:37:13;;;;;;;6.85;4.40;;;;;;;-4.89;100.00;103956.78;4987728;28;20053;-78
2024/01/09 08:39:41;;;;;;;6.70;4.82;;;;;;;-4.88;100.00;103947.41;5018916;28;20072;-77
2024/01/09 08:42:08;;;;;;;7.00;4.43;;;;;;;-4.87;100.00;103950.16;5029017;28;20040;-78
2024/01/09 08:44:35;;;;;;;6.63;4.50;;;;;;;-4.86;100.00;103951.06;4974646;28;20057;-78
2024/01/09 08:47:03;;;;;;;8.25;4.95;;;;;;;-4.83;100.00;103957.47;5006662;28;20045;-78
2024/01/09 08:49:30;;;;;;;9.80;4.80;;;;;;;-4.81;100.00;103955.09;5023485;28;20058;-77
2024/01/09 08:51:58;;;;;;;9.77;5.32;;;;;;;-4.79;100.00;103951.94;5022441;28;20528;-77
2024/01/09 08:54:25;;;;;;;6.68;4.93;;;;;;;-4.76;100.00;103957.47;5021052;28;20054;-78
2024/01/09 08:56:53;;;;;;;5.93;4.60;;;;;;;-4.75;100.00;103967.00;5021363;28;20052;-79
2024/01/09 08:59:20;;;;;;;6.38;5.07;;;;;;;-4.73;100.00;103960.34;4994279;28;20057;-77
2024/01/09 09:01:48;;;;;;;5.35;4.28;;;;;;;-4.70;100.00;103955.56;5010252;28;20060;-78
2024/01/09 09:04:15;;;;;;;4.72;4.32;;;;;;;-4.67;100.00;103960.16;5024793;28;20682;-79
2024/01/09 09:06:43;;;;;;;8.10;4.88;;;;;;;-4.63;100.00;103956.28;5022200;28;20057;-77
2024/01/09 09:09:10;;;;;;;7.10;4.63;;;;;;;-4.61;100.00;103944.50;4995464;28;20502;-78
2024/01/09 09:11:38;;;;;;;6.90;4.78;;;;;;;-4.58;100.00;103950.91;5005537;28;20419;-78
2024/01/09 09:14:06;;;;;;;9.02;5.15;;;;;;;-4.54;100.00;103947.97;4986686;28;20053;-78
2024/01/09 09:16:34;;;;;;;5.30;4.03;;;;;;;-4.49;100.00;103960.44;5015279;28;20053;-78
2024/01/09 09:19:02;;;;;;;6.28;5.05;;;;;;;-4.46;100.00;103955.63;5034423;28;20049;-78
2024/01/09 09:21:30;;;;;;;6.82;4.63;;;;;;;-4.42;100.00;103951.00;5028200;28;20046;-77
2024/01/09 09:23:57;;;;;;;6.22;5.15;;;;;;;-4.37;100.00;103959.25;5009479;28;20048;-78
2024/01/09 09:26:24;;;;;;;5.88;4.45;;;;;;;-4.33;100.00;103959.78;5024948;28;20482;-78
2024/01/09 09:28:53;;;;;;;6.43;4.93;;;;;;;-4.29;100.00;103958.47;4994346;28;20057;-79
2024/01/09 09:31:37;;;;;;;8.10;4.60;;;;;;;-4.23;100.00;103956.59;5001299;28;20057;-79
2024/01/09 09:34:04;;;;;;;6.85;4.10;;;;;;;-4.18;100.00;103960.59;5013254;28;20076;-79
2024/01/09 09:36:32;;;;;;;6.72;4.38;;;;;;;-4.12;100.00;103957.78;4992697;28;20056;-79
2024/01/09 09:38:59;;;;;;;7.53;4.88;;;;;;;-4.09;100.00;103965.84;5014941;28;20061;-78
2024/01/09 09:41:28;;;;;;;7.97;4.35;;;;;;;-4.06;100.00;103965.28;5016042;28;20049;-78
2024/01/09 09:43:58;;;;;;;5.88;4.53;;;;;;;-4.01;100.00;103954.75;5025627;28;20407;-78
2024/01/09 09:46:28;;;;;;;9.10;4.28;;;;;;;-3.97;100.00;103962.09;4978962;28;20053;-79
2024/01/09 09:48:57;;;;;;;;;;;;;;;-3.93;100.00;103956.53;5014316;28;20057;-78
2024/01/09 09:51:25;;;;;;;15.77;4.25;;;;;;;-3.87;100.00;103964.03;5009196;28;19928;-79
2024/01/09 09:53:55;;;;;;;8.50;4.18;;;;;;;-3.82;100.00;103970.63;5033713;28;20133;-79
2024/01/09 09:56:24;;;;;;;6.82;4.65;;;;;;;-3.75;100.00;103969.63;5022680;28;20053;-78
2024/01/09 09:58:51;;;;;;;6.10;4.40;;;;;;;-3.69;100.00;103964.25;5019212;28;20060;-81
2024/01/09 10:01:22;;;;;;;6.10;4.38;;;;;;;-3.64;100.00;103960.53;5012355;28;20478;-78
2024/01/09 10:04:21;;;;;;;4.90;3.67;;;;;;;-3.59;100.00;103954.19;5018085;28;20029;-78
2024/01/09 10:06:52;;;;;;;9.27;4.20;;;;;;;-3.54;100.00;103964.25;5026519;28;20060;-78
2024/01/09 10:09:20;;;;;;;4.95;4.00;;;;;;;-3.50;100.00;103956.88;5004948;28;20495;-79
2024/01/09 10:11:49;;;;;;;5.70;3.85;;;;;;;-3.45;100.00;103956.63;5012244;28;20064;-79
2024/01/09 10:14:17;;;;;;;5.07;3.92;;;;;;;-3.39;100.00;103958.97;5007827;28;20037;-79
2024/01/09 10:16:49;;;;;;;7.50;4.28;;;;;;;-3.37;100.00;103950.66;4985484;28;20053;-79
2024/01/09 10:19:17;;;;;;;3.33;3.03;;;;;;;-3.28;100.00;103962.75;5016039;28;20060;-79
2024/01/09 10:21:45;;;;;;;5.78;4.00;;;;;;;-3.24;100.00;103955.50;5024858;28;20400;-79
2024/01/09 10:24:14;;;;;;;4.63;3.90;;;;;;;-3.19;100.00;103956.91;5018463;28;20396;-79
2024/01/09 10:26:42;;;;;;;4.10;3.22;;;;;;;-3.12;100.00;103950.75;5013034;28;20545;-79
2024/01/09 10:29:11;;;;;;;5.22;3.42;;;;;;;-3.07;100.00;103951.25;5019279;28;20041;-79
2024/01/09 10:31:42;;;;;;;4.38;3.70;;;;;;;-3.03;100.00;103944.00;5020863;28;20050;-79
2024/01/09 10:34:10;;;;;;;9.18;3.95;;;;;;;-2.97;100.00;103948.91;4974045;28;20065;-79
2024/01/09 10:36:38;;;;;;;4.20;3.65;;;;;;;-2.93;100.00;103943.31;5016545;28;20072;-79
2024/01/09 10:39:06;;;;;;;4.18;3.47;;;;;;;-2.91;100.00;103944.44;5019403;28;20395;-79
2024/01/09 10:41:34;;;;;;;3.55;3.25;;;;;;;-2.88;100.00;103937.00;5003450;28;20045;-79
2024/01/09 10:44:02;;;;;;;4.95;3.70;;;;;;;-2.83;100.00;103933.25;5004100;28;20056;-79
2024/01/09 10:46:33;;;;;;;7.75;4.40;;;;;;;-2.78;100.00;103926.91;5017422;28;20440;-78
2024/01/09 10:49:03;;;;;;;7.65;4.15;;;;;;;-2.75;100.00;103922.06;4997406;28;20045;-79
2024/01/09 10:51:32;;;;;;;5.88;4.40;;;;;;;-2.74;100.00;103923.00;4997210;28;20065;-78
2024/01/09 10:54:03;;;;;;;6.40;4.78;;;;;;;-2.70;100.00;103916.47;5023566;28;20407;-78
2024/01/09 10:56:32;;;;;;;4.90;4.00;;;;;;;-2.69;100.00;103918.31;5024221;28;20061;-78
2024/01/09 10:59:01;;;;;;;8.27;4.40;;;;;;;-2.68;100.00;103909.84;4996125;28;20058;-78
2024/01/09 11:01:28;;;;;;;5.78;4.40;;;;;;;-2.67;100.00;103911.63;5003153;28;20060;-78
2024/01/09 11:03:56;;;;;;;9.13;4.63;;;;;;;-2.67;100.00;103903.91;4984538;28;20046;-78
2024/01/09 11:06:25;;;;;;;11.25;4.10;;;;;;;-2.63;100.00;103900.88;5036557;28;20064;-79
2024/01/09 11:08:58;;;;;;;5.57;4.03;;;;;;;-2.59;100.00;103895.28;5004823;28;20419;-78
2024/01/09 11:11:28;;;;;;;4.68;4.05;;;;;;;-2.54;100.00;103896.69;5022165;28;20774;-78
2024/01/09 11:14:00;;;;;;;5.68;4.18;;;;;;;-2.51;100.00;103883.19;4992891;28;20411;-78
2024/01/09 11:16:31;;;;;;;8.43;4.30;;;;;;;-2.49;100.00;103890.34;5015081;28;20057;-78
2024/01/09 11:19:00;;;;;;;5.45;4.47;;;;;;;-2.49;100.00;103885.19;4981793;28;20510;-78
2024/01/09 11:21:27;;;;;;;5.00;3.63;;;;;;;-2.47;99.93;103888.84;5013037;28;20057;-78
2024/01/09 11:23:56;;;;;;;5.05;3.55;;;;;;;-2.45;98.97;103884.75;4999341;28;20431;-78